Time;durP1;ratioP1;P1;durP2;ratioP2;P2;SDS_P1;SDS_P2;PMS_P1;PMS_P2;Temp;Humidity;BMP_temperature;BMP_pressure;BME280_temperature;BME280_humidity;BME280_pressure;Samples;Min_cycle;Max_cycle;Signal;HPM_P1;HPM_P2
2023/06/09 00:02:25;;;;;;;2.70;2.50;;;;;;;18.07;68.36;97973.03;5050099;28;20255;-57
2023/06/09 00:04:50;;;;;;;4.22;2.53;;;;;;;18.11;68.51;97994.47;5049892;28;20181;-57
2023/06/09 00:07:16;;;;;;;3.80;3.10;;;;;;;18.14;68.42;97999.41;5049869;28;20559;-58
2023/06/09 00:09:45;;;;;;;5.40;2.80;;;;;;;18.18;68.54;97995.50;4990336;28;20567;-57
2023/06/09 00:12:12;;;;;;;3.33;2.67;;;;;;;18.09;67.66;97970.25;5002246;28;20213;-58
2023/06/09 00:14:37;;;;;;;5.15;3.08;;;;;;;18.04;67.92;97980.41;5025609;28;20275;-58
2023/06/09 00:17:07;;;;;;;4.57;2.83;;;;;;;18.03;68.31;97994.47;5029844;28;20630;-58
2023/06/09 00:19:34;;;;;;;3.08;2.78;;;;;;;17.93;69.25;98010.34;5029879;28;20260;-58
2023/06/09 00:22:01;;;;;;;2.40;2.30;;;;;;;17.92;69.02;98005.25;5029697;28;20194;-58
2023/06/09 00:24:26;;;;;;;2.78;2.42;;;;;;;17.86;70.20;98014.59;5029770;28;20244;-58
2023/06/09 00:26:52;;;;;;;4.07;2.63;;;;;;;17.96;71.63;98022.28;5029732;28;20206;-58
2023/06/09 00:29:19;;;;;;;2.47;2.28;;;;;;;17.84;72.00;98002.63;5009880;28;20198;-58
2023/06/09 00:31:44;;;;;;;3.90;2.50;;;;;;;17.91;70.67;98024.56;5009849;28;20570;-58
2023/06/09 00:34:11;;;;;;;3.80;2.25;;;;;;;17.91;69.47;98008.84;5009924;28;20205;-58
2023/06/09 00:36:37;;;;;;;4.13;2.70;;;;;;;18.03;68.54;98018.03;5009981;28;20215;-58
2023/06/09 00:39:03;;;;;;;2.72;2.42;;;;;;;17.91;69.33;98014.09;5013656;28;20194;-58
2023/06/09 00:41:29;;;;;;;3.35;2.58;;;;;;;17.87;69.45;98028.47;5013866;28;20266;-58
2023/06/09 00:43:55;;;;;;;2.85;2.58;;;;;;;17.60;69.61;97994.72;5013723;28;20313;-57
2023/06/09 00:46:21;;;;;;;4.32;2.80;;;;;;;17.87;69.50;98025.84;5020786;28;20196;-58
2023/06/09 00:48:47;;;;;;;3.50;2.83;;;;;;;17.79;69.44;98004.91;5053381;28;20196;-57
2023/06/09 00:51:12;;;;;;;2.88;2.67;;;;;;;17.88;69.97;98014.41;5053401;28;20173;-57
2023/06/09 00:53:38;;;;;;;3.35;2.80;;;;;;;17.64;70.99;98016.94;5053387;28;20280;-57
2023/06/09 00:56:05;;;;;;;4.45;2.67;;;;;;;17.51;70.68;97982.56;5053219;28;20251;-57
2023/06/09 00:58:32;;;;;;;4.28;2.65;;;;;;;17.53;70.73;97993.69;5053299;28;20180;-57
2023/06/09 01:00:58;;;;;;;2.75;2.55;;;;;;;17.52;70.68;97987.66;5070494;28;20242;-57
2023/06/09 01:03:26;;;;;;;4.65;3.10;;;;;;;17.40;70.47;97978.44;5075399;28;20558;-57
2023/06/09 01:05:59;;;;;;;3.67;2.50;;;;;;;17.57;71.03;98015.94;5075473;28;20187;-57
2023/06/09 01:08:33;;;;;;;3.53;3.22;;;;;;;17.45;71.77;98006.75;5075476;28;20188;-57
2023/06/09 01:11:13;;;;;;;3.13;2.83;;;;;;;17.22;73.17;97979.47;5075474;28;20615;-57
2023/06/09 01:13:42;;;;;;;2.55;2.35;;;;;;;17.21;73.91;97988.31;5033016;28;20231;-57
2023/06/09 01:16:24;;;;;;;3.88;3.03;;;;;;;17.14;73.72;97998.53;5033003;28;20192;-58
2023/06/09 01:18:51;;;;;;;4.72;2.95;;;;;;;17.18;72.04;97968.50;5033245;28;20318;-58
2023/06/09 01:21:20;;;;;;;2.53;2.33;;;;;;;17.48;71.27;98004.63;5032572;28;20185;-58
2023/06/09 01:24:14;;;;;;;2.58;2.30;;;;;;;17.45;71.93;98001.50;5032716;28;20210;-58
2023/06/09 01:26:40;;;;;;;6.88;2.88;;;;;;;17.30;73.36;98009.09;5032888;28;20654;-58
2023/06/09 01:29:06;;;;;;;2.95;2.72;;;;;;;17.00;74.22;97980.84;5032689;28;20190;-57
2023/06/09 01:31:33;;;;;;;2.90;2.70;;;;;;;17.14;74.93;98014.22;5032615;28;20241;-57
2023/06/09 01:34:00;;;;;;;2.92;2.72;;;;;;;16.97;76.53;98011.69;5032661;28;20206;-57
2023/06/09 01:36:27;;;;;;;4.63;2.95;;;;;;;16.90;77.70;98000.22;5032649;28;20718;-57
2023/06/09 01:38:52;;;;;;;3.00;2.65;;;;;;;16.95;77.47;98003.16;5032827;28;20186;-57
2023/06/09 01:41:18;;;;;;;3.13;2.88;;;;;;;16.95;76.73;97993.56;5032675;28;20268;-57
2023/06/09 01:43:43;;;;;;;2.63;2.38;;;;;;;17.01;76.59;98005.16;5032372;28;20241;-57
2023/06/09 01:46:09;;;;;;;3.03;2.83;;;;;;;17.05;78.13;98014.34;4993025;28;20179;-57
2023/06/09 01:48:46;;;;;;;3.25;2.95;;;;;;;16.92;78.77;97982.59;4992434;28;20191;-57
2023/06/09 01:51:22;;;;;;;3.28;2.85;;;;;;;16.84;79.53;97987.78;4993049;28;20198;-58
2023/06/09 01:53:57;;;;;;;3.35;2.75;;;;;;;17.07;79.35;98012.38;4993044;28;20167;-57
2023/06/09 01:56:42;;;;;;;2.90;2.45;;;;;;;16.94;79.20;97983.25;4992982;28;20191;-57
2023/06/09 01:59:11;;;;;;;3.35;2.85;;;;;;;16.87;82.15;98009.19;4992972;28;20735;-58
2023/06/09 02:01:38;;;;;;;4.70;2.33;;;;;;;16.87;81.78;97977.00;4992790;28;20202;-57
2023/06/09 02:04:05;;;;;;;3.05;2.75;;;;;;;16.98;82.15;98005.50;4934729;29;20304;-57
2023/06/09 02:06:32;;;;;;;2.90;2.70;;;;;;;16.90;82.41;97990.56;4934835;29;20227;-57
2023/06/09 02:08:59;;;;;;;3.58;3.22;;;;;;;16.78;82.93;98001.44;4915693;29;20195;-57
2023/06/09 02:11:25;;;;;;;3.40;2.80;;;;;;;16.74;83.05;98006.13;4918667;29;20203;-57
2023/06/09 02:13:55;;;;;;;3.40;2.80;;;;;;;16.65;83.23;97999.25;4934685;29;20219;-57
2023/06/09 02:16:21;;;;;;;5.82;2.83;;;;;;;16.80;83.81;98009.94;4941345;28;20271;-57
2023/06/09 02:18:48;;;;;;;3.10;2.80;;;;;;;16.54;86.76;98006.47;4973000;28;20222;-57
2023/06/09 02:21:14;;;;;;;4.60;2.97;;;;;;;16.14;89.29;97977.38;4973064;28;20259;-57
2023/06/09 02:23:40;;;;;;;3.20;3.00;;;;;;;16.22;90.37;98004.38;4972931;28;20311;-57
2023/06/09 02:26:08;;;;;;;4.00;3.30;;;;;;;16.20;90.68;97998.50;4972975;28;20184;-57
2023/06/09 02:28:33;;;;;;;3.65;3.30;;;;;;;16.18;90.71;98003.06;4972873;28;20196;-57
2023/06/09 02:30:59;;;;;;;2.90;2.70;;;;;;;16.27;90.37;97990.91;4972728;28;20560;-57
2023/06/09 02:33:25;;;;;;;3.63;2.80;;;;;;;16.34;89.07;97965.81;4972710;28;20180;-57
2023/06/09 02:35:52;;;;;;;4.30;3.10;;;;;;;16.61;88.53;98000.50;5005637;28;20191;-57
2023/06/09 02:38:17;;;;;;;2.97;2.60;;;;;;;16.71;87.71;97995.19;5011746;28;20189;-57
2023/06/09 02:40:45;;;;;;;3.78;2.88;;;;;;;16.77;86.75;97989.34;5062268;28;20263;-58
2023/06/09 02:43:10;;;;;;;3.30;3.00;;;;;;;16.75;87.07;98004.38;5073630;28;20204;-58
2023/06/09 02:45:36;;;;;;;4.28;2.80;;;;;;;16.72;87.80;98002.03;5073347;28;20222;-57
2023/06/09 02:48:01;;;;;;;3.15;2.95;;;;;;;16.54;90.33;98003.88;5073555;28;20238;-58
2023/06/09 02:50:27;;;;;;;3.80;3.13;;;;;;;16.26;92.76;97984.06;5073243;28;20248;-57
2023/06/09 02:52:52;;;;;;;3.53;2.63;;;;;;;16.43;92.76;98011.94;5073487;28;20180;-57
2023/06/09 02:55:18;;;;;;;3.50;3.15;;;;;;;16.29;92.61;97983.72;5073138;28;20200;-57
2023/06/09 02:57:45;;;;;;;3.50;3.20;;;;;;;16.32;94.20;98012.16;5073299;28;20199;-57
2023/06/09 03:00:12;;;;;;;3.63;2.85;;;;;;;16.35;94.65;98012.69;5073177;28;20168;-57
2023/06/09 03:02:38;;;;;;;3.33;2.97;;;;;;;16.41;94.74;98009.50;5073203;28;20207;-57
2023/06/09 03:05:05;;;;;;;4.85;3.15;;;;;;;16.48;94.54;98012.31;5030802;28;20186;-58
2023/06/09 03:07:31;;;;;;;5.93;3.55;;;;;;;16.47;94.68;98021.13;5030911;28;20584;-57
2023/06/09 03:09:58;;;;;;;4.50;3.20;;;;;;;16.61;90.72;98015.38;5030781;28;20196;-57
2023/06/09 03:12:23;;;;;;;3.47;3.00;;;;;;;16.65;89.77;98014.06;5030827;28;20186;-57
2023/06/09 03:14:49;;;;;;;2.95;2.75;;;;;;;16.67;89.45;98004.31;5030829;28;20178;-57
2023/06/09 03:17:17;;;;;;;3.00;2.72;;;;;;;16.69;89.96;97976.25;5030757;28;20208;-58
2023/06/09 03:19:42;;;;;;;3.50;3.20;;;;;;;16.75;87.07;97988.69;5030695;28;20193;-58
2023/06/09 03:22:08;;;;;;;3.75;3.15;;;;;;;16.71;85.99;97975.13;5030628;28;20640;-57
2023/06/09 03:24:33;;;;;;;4.55;3.33;;;;;;;16.81;84.01;98001.13;5030467;28;20213;-57
2023/06/09 03:26:59;;;;;;;3.72;2.70;;;;;;;16.88;83.24;98015.22;5030546;28;20191;-58
2023/06/09 03:29:24;;;;;;;4.90;3.28;;;;;;;16.66;82.98;97985.19;5030411;28;20184;-57
2023/06/09 03:31:50;;;;;;;3.90;3.10;;;;;;;16.78;82.35;98009.25;5030379;28;20198;-57
2023/06/09 03:34:15;;;;;;;4.20;2.95;;;;;;;16.94;83.10;98019.84;5030482;28;20185;-57
2023/06/09 03:36:41;;;;;;;3.22;2.92;;;;;;;16.89;83.92;98016.84;5055210;28;20616;-57
2023/06/09 03:39:07;;;;;;;4.10;2.90;;;;;;;17.08;83.34;98024.50;5072512;28;20177;-57
2023/06/09 03:41:33;;;;;;;4.38;3.08;;;;;;;17.09;83.98;98021.72;5072593;28;20180;-57
2023/06/09 03:43:58;;;;;;;4.07;3.30;;;;;;;17.11;84.02;98013.72;5072471;28;20195;-57
2023/06/09 03:46:23;;;;;;;4.03;2.97;;;;;;;17.21;83.79;98019.69;5072461;28;20176;-57
2023/06/09 03:48:49;;;;;;;3.40;3.00;;;;;;;17.27;82.50;98029.50;5072524;28;20268;-57
2023/06/09 03:51:16;;;;;;;3.45;2.75;;;;;;;17.24;79.42;97998.44;5072641;28;20626;-58
2023/06/09 03:53:41;;;;;;;4.28;2.88;;;;;;;17.46;78.53;98031.91;5072319;28;20202;-58
2023/06/09 03:56:07;;;;;;;4.18;2.92;;;;;;;17.46;78.57;98011.00;5072360;28;20180;-58
2023/06/09 03:58:33;;;;;;;3.55;2.97;;;;;;;17.43;78.46;98008.72;5072343;28;20646;-58
2023/06/09 04:00:58;;;;;;;3.40;2.97;;;;;;;17.40;79.57;98014.22;5072323;28;20183;-58
2023/06/09 04:03:24;;;;;;;4.45;3.58;;;;;;;17.58;81.47;98028.03;5072101;28;20570;-57
2023/06/09 04:05:50;;;;;;;6.80;3.53;;;;;;;17.49;79.86;98003.66;5072573;28;20184;-58
2023/06/09 04:08:15;;;;;;;3.25;2.95;;;;;;;17.52;78.35;98000.72;5071973;28;20169;-57
2023/06/09 04:10:41;;;;;;;2.92;2.63;;;;;;;17.65;77.97;98029.03;5072162;28;20644;-58
2023/06/09 04:13:08;;;;;;;3.00;2.80;;;;;;;17.71;77.62;98033.66;5071312;28;20179;-57
2023/06/09 04:15:33;;;;;;;7.05;3.17;;;;;;;17.63;77.86;98025.78;5071879;28;20176;-57
2023/06/09 04:17:59;;;;;;;3.33;3.03;;;;;;;17.56;77.51;98009.06;5071887;28;20656;-58
2023/06/09 04:20:25;;;;;;;7.70;3.25;;;;;;;17.86;77.05;98032.91;5072136;28;20339;-58
2023/06/09 04:22:52;;;;;;;5.47;3.25;;;;;;;17.95;76.81;98031.94;5071740;28;20291;-58
2023/06/09 04:25:19;;;;;;;3.47;3.17;;;;;;;17.98;75.96;98020.31;5071994;28;20217;-58
2023/06/09 04:27:45;;;;;;;3.33;3.03;;;;;;;17.97;75.44;98003.81;5072096;28;20176;-57
2023/06/09 04:30:11;;;;;;;3.60;2.90;;;;;;;18.05;74.68;98010.84;5071975;28;20647;-58
2023/06/09 04:32:37;;;;;;;3.40;3.10;;;;;;;18.04;74.28;97999.56;5072003;28;20173;-57
2023/06/09 04:35:02;;;;;;;3.45;3.15;;;;;;;18.22;74.12;98022.97;5072145;28;20187;-57
2023/06/09 04:37:29;;;;;;;8.27;3.33;;;;;;;18.17;73.92;97999.91;5071636;28;20171;-58
2023/06/09 04:39:55;;;;;;;3.63;3.30;;;;;;;18.39;73.53;98028.13;5071888;28;20178;-57
2023/06/09 04:42:22;;;;;;;5.53;3.55;;;;;;;18.34;73.75;98024.34;5071840;28;20175;-57
2023/06/09 04:44:50;;;;;;;3.10;2.80;;;;;;;18.29;73.77;98000.38;5071651;28;20548;-58
2023/06/09 04:47:20;;;;;;;3.65;3.08;;;;;;;18.43;73.71;98028.59;5072140;28;20180;-58
2023/06/09 04:49:46;;;;;;;4.03;2.70;;;;;;;18.52;73.80;98035.47;5071769;28;20176;-58
2023/06/09 04:52:19;;;;;;;3.22;2.92;;;;;;;18.37;73.44;98000.44;5071452;28;20552;-58
2023/06/09 04:54:44;;;;;;;3.20;2.90;;;;;;;18.55;73.70;98029.91;5072085;28;20176;-57
2023/06/09 04:57:11;;;;;;;3.13;2.80;;;;;;;18.67;72.83;98033.84;5071426;28;20177;-57
2023/06/09 04:59:40;;;;;;;4.97;3.40;;;;;;;18.71;71.99;98012.38;5071681;28;20176;-58
2023/06/09 05:02:07;;;;;;;3.60;3.33;;;;;;;18.85;71.89;98031.88;5071787;28;20204;-58
2023/06/09 05:04:33;;;;;;;3.42;3.13;;;;;;;18.72;71.74;98005.34;5009467;28;20241;-58
2023/06/09 05:06:59;;;;;;;7.03;3.10;;;;;;;18.79;71.60;98012.38;5009654;28;20253;-58
2023/06/09 05:09:24;;;;;;;3.90;3.00;;;;;;;18.73;71.40;97999.94;5009615;28;20194;-58
2023/06/09 05:11:49;;;;;;;5.63;3.15;;;;;;;18.82;71.88;98012.03;5009629;28;20716;-58
2023/06/09 05:14:15;;;;;;;3.08;2.88;;;;;;;19.04;71.67;98042.00;5009861;28;20273;-58
2023/06/09 05:16:41;;;;;;;5.85;3.10;;;;;;;19.06;71.28;98019.06;5009525;28;20183;-58
2023/06/09 05:19:07;;;;;;;4.43;3.03;;;;;;;19.14;70.91;98005.91;5009459;28;20216;-57
2023/06/09 05:21:33;;;;;;;3.80;3.45;;;;;;;19.48;70.53;98030.13;5009505;28;20274;-58
2023/06/09 05:23:59;;;;;;;4.53;3.40;;;;;;;19.60;70.26;98013.84;5009820;28;20696;-58
2023/06/09 05:26:25;;;;;;;3.03;2.78;;;;;;;19.76;69.49;98032.13;4993266;28;20187;-58
2023/06/09 05:28:51;;;;;;;4.55;3.35;;;;;;;19.84;69.38;98032.09;4993263;28;20745;-57
2023/06/09 05:31:19;;;;;;;5.28;3.08;;;;;;;19.95;68.99;98041.38;4993236;28;20349;-57
2023/06/09 05:33:44;;;;;;;4.45;3.88;;;;;;;20.04;68.58;98027.25;4993237;28;20187;-57
2023/06/09 05:36:09;;;;;;;5.78;3.40;;;;;;;20.24;68.39;98041.59;4993283;28;20191;-57
2023/06/09 05:38:35;;;;;;;5.35;3.28;;;;;;;20.23;66.93;98027.63;4993279;28;20737;-57
2023/06/09 05:41:01;;;;;;;3.42;3.10;;;;;;;20.14;67.01;98012.09;4999733;28;20191;-57
2023/06/09 05:43:27;;;;;;;3.38;3.00;;;;;;;20.33;66.91;98035.28;5052616;28;20193;-57
2023/06/09 05:45:53;;;;;;;5.95;3.42;;;;;;;20.47;66.65;98039.78;5052365;28;20676;-57
2023/06/09 05:48:18;;;;;;;3.53;2.97;;;;;;;20.62;66.11;98048.53;5052391;28;20185;-57
2023/06/09 05:50:45;;;;;;;3.15;2.95;;;;;;;20.65;65.45;98021.88;5052400;28;20184;-57
2023/06/09 05:53:11;;;;;;;6.70;3.58;;;;;;;20.94;65.21;98037.78;5052244;28;20299;-57
2023/06/09 05:55:36;;;;;;;7.03;3.40;;;;;;;21.10;65.88;98042.88;5052240;28;20211;-58
2023/06/09 05:58:02;;;;;;;4.80;3.60;;;;;;;21.24;67.26;98052.59;5069062;28;20563;-58
2023/06/09 06:00:30;;;;;;;4.70;4.13;;;;;;;21.23;66.65;98043.06;5074111;28;20631;-56
2023/06/09 06:02:56;;;;;;;7.78;3.90;;;;;;;21.25;66.97;98025.28;5074367;28;20196;-58
2023/06/09 06:05:21;;;;;;;5.53;3.85;;;;;;;21.37;67.08;98029.09;5074408;28;20668;-58
2023/06/09 06:07:47;;;;;;;4.93;3.60;;;;;;;21.44;67.33;98040.56;5074093;28;20259;-57
2023/06/09 06:10:12;;;;;;;3.50;3.22;;;;;;;21.11;69.80;98034.00;5031932;28;20186;-58
2023/06/09 06:12:38;;;;;;;6.43;3.55;;;;;;;21.06;70.63;98041.59;5031827;28;20617;-58
2023/06/09 06:15:04;;;;;;;12.10;4.13;;;;;;;21.08;70.62;98040.44;5011912;28;20187;-58
2023/06/09 06:17:29;;;;;;;6.35;3.58;;;;;;;21.17;70.41;98017.47;5012114;28;20559;-57
2023/06/09 06:19:56;;;;;;;6.18;4.35;;;;;;;21.30;69.92;98013.22;5012053;28;20707;-57
2023/06/09 06:22:22;;;;;;;7.68;3.85;;;;;;;21.60;69.49;98037.72;5011958;28;20266;-58
2023/06/09 06:24:47;;;;;;;7.78;3.83;;;;;;;21.69;69.04;98042.72;5011886;28;20249;-57
2023/06/09 06:27:12;;;;;;;5.63;3.78;;;;;;;21.79;68.52;98047.75;5011982;28;20274;-57
2023/06/09 06:29:39;;;;;;;5.95;4.13;;;;;;;21.91;68.15;98043.63;5011750;28;20197;-58
2023/06/09 06:32:06;;;;;;;5.45;4.03;;;;;;;21.89;67.94;98014.00;5011889;28;20204;-58
2023/06/09 06:34:31;;;;;;;4.78;3.65;;;;;;;22.04;66.90;98033.22;5011709;28;20719;-58
2023/06/09 06:36:57;;;;;;;7.05;3.95;;;;;;;22.04;67.47;98027.97;5011484;28;20211;-57
2023/06/09 06:39:22;;;;;;;8.60;4.10;;;;;;;22.17;67.50;98036.00;5011740;28;20669;-58
2023/06/09 06:41:48;;;;;;;5.47;4.30;;;;;;;22.07;67.30;98043.38;5011904;28;20186;-57
2023/06/09 06:44:14;;;;;;;7.35;4.28;;;;;;;22.09;67.97;98036.94;4972408;28;20226;-58
2023/06/09 06:46:39;;;;;;;8.52;4.32;;;;;;;22.08;68.12;98034.50;4994699;28;20183;-57
2023/06/09 06:49:05;;;;;;;6.57;3.92;;;;;;;22.11;68.66;98028.84;5011601;28;20194;-58
2023/06/09 06:51:30;;;;;;;6.47;3.75;;;;;;;22.07;68.18;98017.03;5011460;28;20268;-58
2023/06/09 06:53:55;;;;;;;4.47;4.00;;;;;;;22.17;68.04;98013.13;5011406;28;20201;-58
2023/06/09 06:56:22;;;;;;;6.65;3.90;;;;;;;22.06;68.87;97996.97;5011401;28;20563;-58
2023/06/09 06:58:47;;;;;;;6.65;4.13;;;;;;;22.24;68.03;98018.44;5011287;28;20278;-58
2023/06/09 07:01:17;;;;;;;4.03;3.53;;;;;;;22.22;67.63;98009.91;5011343;28;20186;-58
2023/06/09 07:03:42;;;;;;;6.15;4.20;;;;;;;22.11;68.73;97999.84;5011105;28;20222;-58
2023/06/09 07:06:09;;;;;;;7.30;3.72;;;;;;;22.06;68.71;98018.88;5011250;28;20186;-58
2023/06/09 07:08:35;;;;;;;5.35;3.88;;;;;;;22.22;68.28;98015.19;4952805;29;20193;-58
2023/06/09 07:11:01;;;;;;;5.47;3.95;;;;;;;22.17;67.71;97996.47;4933436;29;20641;-58
2023/06/09 07:13:27;;;;;;;3.92;3.50;;;;;;;22.11;68.44;97987.50;4933536;29;20321;-58
2023/06/09 07:15:52;;;;;;;5.65;4.00;;;;;;;22.19;67.44;97994.47;4972381;28;20193;-57
2023/06/09 07:18:17;;;;;;;4.18;3.53;;;;;;;22.09;67.86;97988.69;4991405;28;20191;-57
2023/06/09 07:20:43;;;;;;;3.90;3.60;;;;;;;22.40;67.39;98012.94;4991391;28;20277;-58
2023/06/09 07:23:08;;;;;;;5.20;3.67;;;;;;;22.54;67.22;98014.69;4991264;28;20289;-57
2023/06/09 07:25:34;;;;;;;6.40;4.18;;;;;;;22.68;66.39;98013.81;4991295;28;20188;-57
2023/06/09 07:27:59;;;;;;;4.22;3.63;;;;;;;22.69;65.69;98015.47;4991273;28;20199;-57
2023/06/09 07:30:24;;;;;;;5.70;3.50;;;;;;;22.73;64.31;98003.53;4991336;28;20199;-57
2023/06/09 07:32:50;;;;;;;5.70;3.70;;;;;;;22.67;64.77;98001.66;4991156;28;20640;-57
2023/06/09 07:35:16;;;;;;;4.43;4.03;;;;;;;22.53;66.71;97992.81;4991141;28;20739;-57
2023/06/09 07:37:45;;;;;;;4.10;3.63;;;;;;;22.75;66.23;98014.69;4991047;28;20195;-57
2023/06/09 07:40:11;;;;;;;4.20;3.80;;;;;;;22.54;65.41;98004.16;5005792;28;20202;-57
2023/06/09 07:42:36;;;;;;;3.30;3.00;;;;;;;22.59;65.48;98007.03;5056964;28;20195;-57
2023/06/09 07:45:02;;;;;;;4.95;3.28;;;;;;;22.68;64.65;98004.06;5072605;28;20172;-57
2023/06/09 07:47:28;;;;;;;3.80;3.50;;;;;;;22.67;65.39;98013.00;5071623;28;20212;-57
2023/06/09 07:49:53;;;;;;;4.28;3.88;;;;;;;22.65;65.42;98006.28;5072459;28;20280;-57
2023/06/09 07:52:18;;;;;;;4.05;3.40;;;;;;;22.88;63.98;97998.97;5072486;28;20186;-57
2023/06/09 07:54:44;;;;;;;8.25;3.63;;;;;;;23.00;64.52;98006.16;5072409;28;20172;-58
2023/06/09 07:57:10;;;;;;;4.28;3.88;;;;;;;23.10;64.02;98000.53;5072108;28;20257;-57
2023/06/09 07:59:35;;;;;;;3.97;3.58;;;;;;;23.23;63.48;98006.75;5072279;28;20184;-57
2023/06/09 08:02:01;;;;;;;3.60;3.30;;;;;;;23.37;62.75;97997.88;5072336;28;20204;-57
2023/06/09 08:04:28;;;;;;;4.25;3.72;;;;;;;23.51;61.60;97996.13;5072219;28;20230;-57
2023/06/09 08:06:54;;;;;;;6.05;3.30;;;;;;;23.71;60.87;98005.78;5010070;28;20306;-58
2023/06/09 08:09:19;;;;;;;5.20;3.42;;;;;;;23.70;61.30;98001.50;4971179;28;20231;-57
2023/06/09 08:11:45;;;;;;;9.48;3.55;;;;;;;23.63;61.70;97986.63;4971158;28;20666;-57
2023/06/09 08:14:10;;;;;;;6.38;3.70;;;;;;;23.88;59.76;98009.75;4971171;28;20662;-57
2023/06/09 08:16:35;;;;;;;6.40;3.80;;;;;;;23.98;59.64;98024.22;4971204;28;20192;-57
2023/06/09 08:19:01;;;;;;;5.07;3.80;;;;;;;23.97;58.43;98015.66;4971421;28;20242;-57
2023/06/09 08:21:26;;;;;;;3.88;3.58;;;;;;;23.81;58.60;97996.47;4971193;28;20626;-57
2023/06/09 08:23:52;;;;;;;3.42;3.05;;;;;;;23.65;58.60;97996.00;4971211;28;20361;-57
2023/06/09 08:26:18;;;;;;;4.90;3.22;;;;;;;23.86;58.30;98017.84;4971064;28;20254;-57
2023/06/09 08:28:43;;;;;;;3.80;3.10;;;;;;;23.69;57.85;97994.59;4971010;28;20198;-57
2023/06/09 08:31:09;;;;;;;8.45;3.53;;;;;;;23.80;57.40;97994.84;4970770;28;20199;-57
2023/06/09 08:33:36;;;;;;;4.50;3.17;;;;;;;23.73;58.14;97994.00;4970914;28;20646;-57
2023/06/09 08:36:03;;;;;;;3.42;3.13;;;;;;;23.82;58.10;98010.50;4971031;28;20622;-57
2023/06/09 08:38:33;;;;;;;6.13;3.50;;;;;;;23.71;58.12;97987.28;5014687;28;20190;-57
2023/06/09 08:41:09;;;;;;;4.22;3.28;;;;;;;23.89;57.88;97990.22;5029674;28;20272;-57
2023/06/09 08:43:35;;;;;;;7.57;3.58;;;;;;;24.13;56.51;97996.81;5029690;28;20201;-57
2023/06/09 08:46:04;;;;;;;5.82;3.20;;;;;;;24.28;55.38;98009.66;5029512;28;20186;-57
2023/06/09 08:48:31;;;;;;;4.53;3.05;;;;;;;24.14;56.50;98002.72;5029590;28;20206;-57
2023/06/09 08:50:57;;;;;;;4.05;3.38;;;;;;;24.21;56.20;97982.38;5029620;28;20192;-57
2023/06/09 08:53:24;;;;;;;3.95;2.95;;;;;;;24.49;56.50;98001.53;5029627;28;20251;-57
2023/06/09 08:55:52;;;;;;;5.82;3.92;;;;;;;24.36;56.43;97990.13;4989995;28;20191;-57
2023/06/09 08:58:18;;;;;;;4.43;3.10;;;;;;;24.54;55.21;97987.69;4991042;28;20235;-57
2023/06/09 09:00:43;;;;;;;4.50;3.30;;;;;;;24.57;54.68;97976.75;4993983;28;20258;-57
2023/06/09 09:03:09;;;;;;;9.60;3.45;;;;;;;24.66;54.50;97992.22;5012058;28;20220;-57
2023/06/09 09:05:35;;;;;;;8.02;3.95;;;;;;;24.85;53.67;97996.69;5013496;28;20807;-57
2023/06/09 09:08:00;;;;;;;4.90;3.45;;;;;;;24.77;54.29;97994.25;5013379;28;20194;-57
2023/06/09 09:10:26;;;;;;;3.28;2.97;;;;;;;24.84;53.15;97992.44;5013451;28;20191;-57
2023/06/09 09:12:55;;;;;;;3.42;3.03;;;;;;;24.96;53.36;97993.44;5013403;28;20190;-57
2023/06/09 09:15:27;;;;;;;3.88;2.92;;;;;;;25.08;52.38;97997.09;4993632;28;20274;-57
2023/06/09 09:17:52;;;;;;;5.00;3.45;;;;;;;24.84;52.34;97989.78;4993738;28;20198;-57
2023/06/09 09:20:18;;;;;;;4.45;3.17;;;;;;;24.88;52.99;97980.41;4993570;28;20184;-57
2023/06/09 09:22:50;;;;;;;3.42;3.22;;;;;;;25.00;54.26;97983.25;4993505;28;20190;-57
2023/06/09 09:25:22;;;;;;;5.78;3.45;;;;;;;24.87;54.60;97957.63;4993632;28;20592;-57
2023/06/09 09:28:08;;;;;;;3.97;3.28;;;;;;;25.08;54.59;97965.31;5028984;28;20188;-57
2023/06/09 09:30:50;;;;;;;5.95;3.70;;;;;;;24.85;55.79;97954.34;5032723;28;20197;-57
2023/06/09 09:33:23;;;;;;;3.72;3.30;;;;;;;25.16;55.75;97970.41;5032759;28;20316;-57
2023/06/09 09:35:50;;;;;;;4.22;3.35;;;;;;;25.29;55.68;97978.34;5032590;28;20291;-57
2023/06/09 09:38:19;;;;;;;3.78;3.45;;;;;;;25.31;55.21;97968.34;5032515;28;20212;-57
2023/06/09 09:40:50;;;;;;;6.13;3.58;;;;;;;25.34;55.02;97964.47;4993336;28;20565;-57
2023/06/09 09:43:16;;;;;;;4.50;3.35;;;;;;;25.23;54.75;97950.00;4993140;28;20218;-57
2023/06/09 09:45:46;;;;;;;4.13;3.78;;;;;;;25.37;54.90;97942.88;4993189;28;20568;-57
2023/06/09 09:48:17;;;;;;;3.78;3.47;;;;;;;25.40;55.31;97947.72;5012666;28;20550;-57
2023/06/09 09:50:44;;;;;;;5.43;3.60;;;;;;;25.54;55.12;97938.72;5012637;28;20363;-57
2023/06/09 09:53:10;;;;;;;4.07;3.40;;;;;;;25.82;53.22;97965.69;5012551;28;20195;-57
2023/06/09 09:55:42;;;;;;;3.88;3.20;;;;;;;25.81;52.34;97954.28;5012577;28;20187;-57
2023/06/09 09:58:09;;;;;;;3.78;3.47;;;;;;;25.85;52.46;97963.47;5012555;28;20272;-57
2023/06/09 10:00:36;;;;;;;3.92;3.53;;;;;;;25.92;52.42;97964.25;5012463;28;20191;-57
2023/06/09 10:03:09;;;;;;;4.13;3.42;;;;;;;25.97;51.63;97935.28;5012302;28;20364;-57
2023/06/09 10:05:41;;;;;;;3.83;3.17;;;;;;;26.25;51.61;97964.84;5012317;28;20197;-57
2023/06/09 10:08:10;;;;;;;4.60;3.53;;;;;;;26.32;52.43;97941.78;5012302;28;20226;-57
2023/06/09 10:10:36;;;;;;;6.53;3.50;;;;;;;26.27;51.36;97941.59;5013267;28;20187;-57
2023/06/09 10:13:03;;;;;;;3.42;3.10;;;;;;;26.38;51.16;97943.56;5074056;28;20649;-57
2023/06/09 10:15:30;;;;;;;4.10;3.40;;;;;;;26.20;50.26;97935.53;5074214;28;20267;-57
2023/06/09 10:17:57;;;;;;;4.07;2.92;;;;;;;26.40;50.86;97946.81;5074170;28;20195;-57
2023/06/09 10:20:22;;;;;;;3.65;3.35;;;;;;;26.47;50.93;97921.03;5074143;28;20180;-57
2023/06/09 10:22:48;;;;;;;4.13;3.13;;;;;;;26.73;51.15;97925.31;5073830;28;20233;-57
2023/06/09 10:25:14;;;;;;;5.95;3.30;;;;;;;26.97;50.26;97919.97;5074103;28;20184;-57
2023/06/09 10:27:40;;;;;;;4.65;3.53;;;;;;;27.16;50.10;97942.06;5074093;28;20215;-57
2023/06/09 10:30:07;;;;;;;4.78;3.45;;;;;;;27.18;49.63;97930.19;5073716;28;20221;-57
2023/06/09 10:32:36;;;;;;;3.95;3.50;;;;;;;27.21;50.29;97935.09;5073963;28;20555;-58
2023/06/09 10:35:05;;;;;;;4.53;3.53;;;;;;;27.20;49.85;97930.81;5073888;28;20256;-57
2023/06/09 10:37:34;;;;;;;3.95;3.58;;;;;;;27.24;49.78;97929.31;5022501;28;20184;-57
2023/06/09 10:40:30;;;;;;;3.30;3.00;;;;;;;27.32;48.65;97941.50;5031356;28;20182;-57
2023/06/09 10:43:10;;;;;;;6.22;3.50;;;;;;;27.48;48.65;97947.03;4991072;28;20222;-57
2023/06/09 10:45:50;;;;;;;5.60;3.50;;;;;;;27.53;49.37;97927.75;4992143;28;20626;-57
2023/06/09 10:48:45;;;;;;;6.00;3.17;;;;;;;27.89;49.21;97931.19;4972397;28;20188;-57
2023/06/09 10:51:26;;;;;;;5.85;3.42;;;;;;;28.14;48.35;97915.88;4972500;28;20670;-57
2023/06/09 10:54:22;;;;;;;3.80;3.50;;;;;;;28.37;46.91;97937.25;4972449;28;20195;-57
2023/06/09 10:57:35;;;;;;;6.80;3.22;;;;;;;28.46;45.53;97930.56;4949203;29;20196;-57
2023/06/09 11:00:01;;;;;;;3.53;3.22;;;;;;;28.57;45.82;97913.78;4934027;29;20579;-57
2023/06/09 11:02:26;;;;;;;3.83;3.47;;;;;;;28.71;46.61;97923.19;4933725;29;20223;-57
2023/06/09 11:04:52;;;;;;;3.55;3.25;;;;;;;28.80;45.54;97900.47;4933689;29;20221;-57
2023/06/09 11:07:22;;;;;;;3.65;3.20;;;;;;;28.79;45.58;97904.19;4933803;29;20198;-59
2023/06/09 11:09:49;;;;;;;5.88;3.22;;;;;;;29.00;45.84;97916.13;4933629;29;20715;-57
2023/06/09 11:12:42;;;;;;;3.65;2.92;;;;;;;28.79;44.58;97920.16;4952836;29;20611;-57
2023/06/09 11:15:10;;;;;;;3.60;2.70;;;;;;;28.73;44.38;97904.28;4952757;29;20196;-57
2023/06/09 11:17:37;;;;;;;5.25;3.00;;;;;;;28.79;43.83;97903.38;4933350;29;20629;-57
2023/06/09 11:20:06;;;;;;;3.38;3.08;;;;;;;29.18;43.50;97916.81;4959604;28;20573;-57
2023/06/09 11:22:32;;;;;;;2.90;2.50;;;;;;;29.28;42.35;97889.56;4932325;29;20261;-57
2023/06/09 11:24:58;;;;;;;4.65;3.10;;;;;;;29.50;42.74;97912.66;4914267;29;20312;-57
2023/06/09 11:27:24;;;;;;;3.17;2.88;;;;;;;29.44;44.34;97897.63;4914349;29;20186;-57
2023/06/09 11:30:11;;;;;;;3.03;2.78;;;;;;;29.52;44.58;97901.78;4914251;29;20214;-57
2023/06/09 11:32:46;;;;;;;2.88;2.67;;;;;;;29.45;43.29;97893.09;4914308;29;20688;-57
2023/06/09 11:35:29;;;;;;;3.00;2.58;;;;;;;29.44;43.21;97908.28;4915107;29;20244;-57
2023/06/09 11:37:57;;;;;;;3.55;2.72;;;;;;;29.41;43.56;97902.63;4933162;29;20185;-57